createdAt,value
2018-12-13T00:00:02.923Z,2.98
2018-12-13T00:02:37.555Z,3.90
2018-12-13T00:05:12.694Z,3.05
2018-12-13T00:07:44.089Z,3.50
2018-12-13T00:10:22.802Z,3.25
2018-12-13T00:12:56.667Z,4.22
2018-12-13T00:15:34.682Z,3.30
2018-12-13T00:18:10.422Z,3.80
2018-12-13T00:20:46.479Z,3.30
2018-12-13T00:23:20.616Z,3.30
2018-12-13T00:25:54.509Z,3.25
2018-12-13T00:28:30.756Z,3.20
2018-12-13T00:31:08.623Z,3.83
2018-12-13T00:33:44.119Z,3.42
2018-12-13T00:36:20.533Z,2.62
2018-12-13T00:38:54.767Z,3.80
2018-12-13T00:41:31.621Z,3.80
2018-12-13T00:44:09.771Z,4.62
2018-12-13T00:46:48.496Z,3.60
2018-12-13T00:49:26.843Z,3.40
2018-12-13T00:52:03.475Z,4.00
2018-12-13T00:54:38.559Z,2.92
2018-12-13T00:57:17.121Z,3.05
2018-12-13T00:59:53.595Z,4.20
2018-12-13T01:02:30.407Z,3.83
2018-12-13T01:05:08.570Z,3.50
2018-12-13T01:07:46.755Z,3.33
2018-12-13T01:10:26.601Z,3.00
2018-12-13T01:13:11.908Z,4.03
2018-12-13T01:15:48.190Z,3.70
2018-12-13T01:21:20.811Z,3.50
2018-12-13T01:24:01.074Z,4.10
2018-12-13T01:26:36.070Z,3.80
2018-12-13T01:29:11.542Z,4.08
2018-12-13T01:31:46.165Z,4.30
2018-12-13T01:34:20.573Z,4.25
2018-12-13T01:36:58.024Z,3.90
2018-12-13T01:39:30.771Z,5.45
2018-12-13T01:42:03.174Z,4.47
2018-12-13T01:44:43.521Z,3.52
2018-12-13T01:47:15.753Z,3.95
2018-12-13T01:49:51.506Z,3.75
2018-12-13T01:52:42.919Z,4.25
2018-12-13T01:55:23.519Z,4.20
2018-12-13T01:58:02.324Z,4.00
2018-12-13T02:00:38.903Z,3.55
2018-12-13T02:03:13.643Z,3.92
2018-12-13T02:05:49.093Z,4.17
2018-12-13T02:08:37.828Z,4.95
2018-12-13T02:11:12.816Z,4.35
2018-12-13T02:16:43.447Z,3.85
2018-12-13T02:19:19.784Z,2.80
2018-12-13T02:21:53.871Z,3.00
2018-12-13T02:24:31.819Z,3.52
2018-12-13T02:27:08.117Z,3.27
2018-12-13T02:29:45.909Z,3.22
2018-12-13T02:32:19.875Z,3.65
2018-12-13T02:34:57.680Z,3.17
2018-12-13T02:37:33.925Z,3.20
2018-12-13T02:42:50.849Z,3.95
2018-12-13T02:45:22.877Z,2.83
2018-12-13T02:50:46.849Z,2.80
2018-12-13T02:53:21.099Z,2.52
2018-12-13T02:55:52.595Z,2.40
2018-12-13T02:58:25.047Z,3.02
2018-12-13T03:00:59.328Z,2.60
2018-12-13T03:03:35.652Z,2.70
2018-12-13T03:06:13.648Z,3.42
2018-12-13T03:08:48.742Z,3.30
2018-12-13T03:11:26.884Z,2.87
2018-12-13T03:14:07.667Z,2.60
2018-12-13T03:16:45.881Z,3.65
2018-12-13T03:19:32.166Z,3.42
2018-12-13T03:28:33.572Z,4.05
2018-12-13T03:31:08.686Z,2.75
2018-12-13T03:33:46.558Z,3.50
2018-12-13T03:39:27.069Z,2.85
2018-12-13T03:44:59.419Z,3.05
2018-12-13T03:47:37.413Z,2.87
2018-12-13T03:50:18.197Z,3.00
2018-12-13T03:58:26.893Z,3.37
2018-12-13T04:04:05.129Z,3.98
2018-12-13T04:06:39.063Z,3.35
2018-12-13T04:09:17.927Z,4.12
2018-12-13T04:12:02.025Z,4.00
2018-12-13T04:14:35.327Z,3.87
2018-12-13T04:17:07.423Z,3.85
2018-12-13T04:19:48.711Z,4.35
2018-12-13T04:22:27.227Z,4.60
2018-12-13T04:25:06.267Z,4.15
2018-12-13T04:41:19.101Z,4.10
2018-12-13T04:43:54.870Z,4.45
2018-12-13T04:46:36.438Z,4.45
2018-12-13T04:52:05.908Z,4.60
2018-12-13T04:54:36.046Z,5.47
2018-12-13T04:57:09.133Z,5.10
2018-12-13T04:59:41.477Z,5.72
2018-12-13T05:02:13.584Z,4.62
2018-12-13T05:05:02.278Z,4.55
2018-12-13T05:07:41.687Z,5.35
2018-12-13T05:10:19.276Z,5.30
2018-12-13T05:12:57.875Z,4.70
2018-12-13T05:15:26.206Z,4.87
2018-12-13T05:17:55.681Z,5.22
2018-12-13T05:23:21.974Z,5.03
2018-12-13T05:25:50.293Z,5.33
2018-12-13T05:28:18.583Z,4.08
2018-12-13T05:30:50.550Z,5.35
2018-12-13T05:33:22.456Z,4.78
2018-12-13T05:35:51.070Z,5.50
2018-12-13T05:38:19.476Z,4.85
2018-12-13T05:40:54.105Z,4.75
2018-12-13T05:43:22.856Z,5.00
2018-12-13T05:45:51.819Z,6.15
2018-12-13T05:48:22.913Z,5.15
2018-12-13T05:50:57.057Z,5.05
2018-12-13T05:53:25.480Z,5.83
2018-12-13T05:56:01.859Z,6.42
2018-12-13T06:01:28.429Z,4.33
2018-12-13T06:03:57.233Z,6.03
2018-12-13T06:06:38.485Z,6.20
2018-12-13T06:33:24.881Z,5.40
2018-12-13T06:40:15.578Z,5.58
2018-12-13T06:45:41.591Z,5.30
2018-12-13T06:48:22.493Z,7.00
2018-12-13T06:50:53.270Z,6.90
2018-12-13T06:53:35.031Z,5.95
2018-12-13T07:08:07.927Z,7.20
2018-12-13T07:10:47.171Z,6.97
2018-12-13T07:13:33.931Z,6.97
2018-12-13T07:16:20.391Z,6.05
2018-12-13T07:18:48.875Z,6.47
2018-12-13T07:21:29.548Z,6.35
2018-12-13T07:23:59.197Z,6.20
2018-12-13T07:26:27.999Z,6.22
2018-12-13T07:29:02.211Z,6.45
2018-12-13T07:34:49.435Z,6.45
2018-12-13T07:40:22.806Z,7.92
2018-12-13T07:42:57.033Z,7.00
2018-12-13T07:45:26.727Z,6.95
2018-12-13T07:48:12.114Z,6.90
2018-12-13T07:53:39.180Z,6.53
2018-12-13T07:59:29.846Z,7.58
2018-12-13T08:02:03.964Z,7.80
2018-12-13T08:04:32.536Z,7.17
2018-12-13T08:09:57.805Z,6.80
2018-12-13T08:12:26.537Z,7.62
2018-12-13T08:14:55.049Z,7.55
2018-12-13T08:17:23.478Z,6.75
2018-12-13T08:19:52.056Z,8.10
2018-12-13T08:22:20.390Z,7.80
2018-12-13T08:24:48.714Z,7.83
2018-12-13T08:27:17.275Z,7.15
2018-12-13T08:29:45.592Z,8.38
2018-12-13T08:32:20.535Z,6.95
2018-12-13T08:34:48.862Z,6.92
2018-12-13T08:37:17.210Z,7.45
2018-12-13T08:39:45.422Z,7.53
2018-12-13T08:42:13.730Z,8.18
2018-12-13T08:44:41.955Z,8.00
2018-12-13T08:47:10.243Z,6.92
2018-12-13T08:49:38.600Z,7.15
2018-12-13T08:52:06.998Z,6.87
2018-12-13T08:54:35.370Z,7.20
2018-12-13T08:57:18.524Z,6.28
2018-12-13T09:00:03.720Z,7.80
2018-12-13T09:02:32.327Z,6.75
2018-12-13T09:05:00.754Z,6.08
2018-12-13T09:07:29.161Z,6.50
2018-12-13T09:09:57.512Z,6.45
2018-12-13T09:12:25.941Z,6.47
2018-12-13T09:14:54.201Z,6.25
2018-12-13T09:17:22.608Z,6.25
2018-12-13T09:20:05.058Z,6.40
2018-12-13T09:22:33.477Z,7.80
2018-12-13T09:25:02.134Z,6.67
2018-12-13T09:27:31.006Z,7.45
2018-12-13T09:29:59.518Z,6.75
2018-12-13T09:38:05.748Z,6.83
2018-12-13T09:40:34.079Z,6.37
2018-12-13T09:43:02.481Z,5.95
2018-12-13T09:45:30.896Z,5.83
2018-12-13T09:48:16.475Z,5.70
2018-12-13T09:50:45.382Z,6.33
2018-12-13T09:53:23.154Z,7.70
2018-12-13T09:55:56.285Z,6.03
2018-12-13T09:58:26.619Z,5.83
2018-12-13T10:00:58.362Z,6.10
2018-12-13T10:06:21.092Z,6.95
2018-12-13T10:11:48.522Z,6.75
2018-12-13T10:14:32.335Z,7.17
2018-12-13T10:17:01.364Z,6.50
2018-12-13T10:19:30.186Z,6.20
2018-12-13T10:21:59.594Z,7.12
2018-12-13T10:27:23.925Z,7.35
2018-12-13T10:29:55.776Z,6.97
2018-12-13T10:32:24.713Z,5.70
2018-12-13T10:34:57.788Z,5.72
2018-12-13T10:37:27.279Z,6.55
2018-12-13T10:48:50.801Z,5.22
2018-12-13T10:51:40.754Z,4.92
2018-12-13T10:57:09.303Z,4.28
2018-12-13T11:05:56.236Z,5.15
2018-12-13T11:08:51.720Z,4.05
2018-12-13T11:14:20.160Z,5.08
2018-12-13T11:16:59.837Z,4.67
2018-12-13T11:19:52.236Z,4.25
2018-12-13T11:25:35.092Z,4.65
2018-12-13T11:28:23.468Z,4.45
2018-12-13T11:34:16.660Z,3.87
2018-12-13T11:39:50.096Z,5.30
2018-12-13T11:42:37.435Z,4.45
2018-12-13T11:45:11.924Z,4.85
2018-12-13T11:47:48.503Z,5.40
2018-12-13T11:50:25.880Z,5.40
2018-12-13T11:53:11.633Z,4.58
2018-12-13T12:03:38.750Z,4.60
2018-12-13T13:27:25.510Z,4.72
2018-12-13T13:29:54.720Z,5.15
2018-12-13T13:37:55.441Z,4.78
2018-12-13T13:40:25.219Z,4.58
2018-12-13T13:42:58.873Z,4.72
2018-12-13T13:45:45.898Z,5.22
2018-12-13T13:48:28.459Z,5.25
2018-12-13T14:14:16.508Z,6.25
2018-12-13T14:16:51.178Z,6.00
2018-12-13T14:22:20.027Z,7.30
2018-12-13T14:24:56.617Z,5.58
2018-12-13T14:27:39.332Z,6.08
2018-12-13T14:30:24.961Z,4.90
2018-12-13T14:32:57.223Z,6.83
2018-12-13T14:35:40.446Z,5.83
2018-12-13T14:38:20.134Z,5.90
2018-12-13T14:40:53.588Z,6.87
2018-12-13T14:43:27.483Z,6.70
2018-12-13T14:45:58.947Z,6.15
2018-12-13T14:48:47.554Z,7.90
2018-12-13T14:51:19.795Z,6.92
2018-12-13T14:53:53.954Z,6.83
2018-12-13T14:56:25.597Z,6.87
2018-12-13T15:02:12.471Z,6.47
2018-12-13T15:07:39.887Z,6.47
2018-12-13T15:10:14.181Z,6.22
2018-12-13T15:12:58.811Z,6.53
2018-12-13T15:15:31.293Z,5.90
2018-12-13T15:18:06.573Z,6.70
2018-12-13T15:23:50.392Z,6.97
2018-12-13T15:26:37.628Z,7.10
2018-12-13T15:29:13.524Z,7.12
2018-12-13T15:31:41.990Z,7.85
2018-12-13T15:34:22.475Z,7.70
2018-12-13T15:36:51.059Z,7.55
2018-12-13T15:42:19.900Z,8.35
2018-12-13T15:45:03.835Z,7.40
2018-12-13T15:47:43.451Z,8.65
2018-12-13T15:50:16.653Z,9.20
2018-12-13T15:52:45.423Z,8.70
2018-12-13T15:55:26.021Z,8.38
2018-12-13T15:58:01.543Z,8.75
2018-12-13T16:03:32.224Z,8.95
2018-12-13T16:06:12.971Z,8.88
2018-12-13T16:08:52.096Z,8.98
2018-12-13T16:11:26.440Z,10.08
2018-12-13T16:14:02.319Z,10.18
2018-12-13T16:16:37.655Z,9.40
2018-12-13T16:19:14.586Z,9.55
2018-12-13T16:21:49.536Z,11.18
2018-12-13T16:24:21.373Z,9.30
2018-12-13T16:26:58.279Z,9.88
2018-12-13T16:29:33.284Z,9.58
2018-12-13T16:32:12.930Z,10.35
2018-12-13T16:34:58.771Z,9.78
2018-12-13T16:37:35.448Z,9.45
2018-12-13T16:43:17.940Z,10.03
2018-12-13T16:46:03.460Z,8.85
2018-12-13T16:48:39.088Z,9.63
2018-12-13T16:51:22.111Z,9.03
2018-12-13T16:53:58.688Z,9.55
2018-12-13T16:56:31.498Z,10.00
2018-12-13T16:59:06.227Z,9.50
2018-12-13T17:01:43.364Z,8.75
2018-12-13T17:04:18.867Z,10.03
2018-12-13T17:07:05.448Z,9.33
2018-12-13T17:09:52.726Z,9.03
2018-12-13T17:12:28.100Z,8.45
2018-12-13T17:15:03.819Z,8.25
2018-12-13T17:17:38.212Z,8.98
2018-12-13T17:20:18.019Z,8.43
2018-12-13T17:22:54.160Z,10.50
2018-12-13T17:31:20.394Z,9.98
2018-12-13T17:36:58.544Z,9.08
2018-12-13T17:39:30.372Z,8.08
2018-12-13T17:45:01.777Z,8.20
2018-12-13T17:47:43.367Z,9.75
2018-12-13T17:50:31.645Z,9.30
2018-12-13T17:53:06.559Z,8.90
2018-12-13T17:55:38.225Z,7.20
2018-12-13T17:58:12.989Z,9.50
2018-12-13T18:00:44.956Z,10.38
2018-12-13T18:03:17.083Z,8.80
2018-12-13T18:05:49.134Z,9.20
2018-12-13T18:08:22.511Z,8.30
2018-12-13T18:10:54.698Z,8.10
2018-12-13T18:13:31.172Z,9.28
2018-12-13T18:16:01.710Z,7.90
2018-12-13T18:18:35.855Z,7.50
2018-12-13T18:21:14.706Z,9.30
2018-12-13T18:23:48.806Z,9.95
2018-12-13T18:26:26.538Z,8.43
2018-12-13T18:29:04.578Z,8.40
2018-12-13T18:31:51.925Z,8.13
2018-12-13T18:34:37.212Z,8.63
2018-12-13T18:37:11.034Z,8.43
2018-12-13T18:39:48.214Z,9.23
2018-12-13T18:42:29.724Z,8.78
2018-12-13T18:45:09.189Z,9.53
2018-12-13T18:47:47.933Z,8.88
2018-12-13T18:50:26.803Z,9.45
2018-12-13T18:52:59.482Z,9.70
2018-12-13T18:55:40.368Z,8.43
2018-12-13T18:58:14.969Z,9.48
2018-12-13T19:00:50.826Z,8.65
2018-12-13T19:03:25.104Z,8.33
2018-12-13T19:05:59.199Z,8.05
2018-12-13T19:08:34.812Z,7.78
2018-12-13T19:11:11.127Z,8.28
2018-12-13T19:13:49.066Z,8.20
2018-12-13T19:19:24.349Z,9.95
2018-12-13T19:21:57.806Z,7.42
2018-12-13T19:24:32.638Z,7.92
2018-12-13T19:27:13.676Z,8.13
2018-12-13T19:29:51.937Z,6.50
2018-12-13T19:32:29.280Z,8.43
2018-12-13T19:35:09.953Z,7.72
2018-12-13T19:37:44.386Z,7.60
2018-12-13T19:40:16.538Z,7.60
2018-12-13T19:42:56.921Z,7.40
2018-12-13T19:48:38.078Z,7.75
2018-12-13T19:51:23.054Z,9.00
2018-12-13T19:54:10.059Z,6.53
2018-12-13T19:56:50.922Z,6.95
2018-12-13T19:59:33.916Z,6.95
2018-12-13T20:02:12.625Z,7.65
2018-12-13T20:04:53.551Z,8.05
2018-12-13T20:07:31.767Z,7.95
2018-12-13T20:10:14.642Z,7.15
2018-12-13T20:12:57.680Z,6.80
2018-12-13T20:15:36.674Z,7.25
2018-12-13T20:18:13.451Z,6.40
2018-12-13T20:20:51.169Z,7.00
2018-12-13T20:23:26.490Z,7.40
2018-12-13T20:26:04.720Z,6.00
2018-12-13T20:28:39.159Z,6.33
2018-12-13T20:31:15.863Z,6.40
2018-12-13T20:36:50.850Z,7.22
2018-12-13T20:39:26.277Z,7.53
2018-12-13T20:45:10.222Z,7.03
2018-12-13T20:47:44.277Z,7.53
2018-12-13T20:50:18.276Z,6.90
2018-12-13T20:53:01.985Z,6.42
2018-12-13T20:55:40.154Z,7.25
2018-12-13T20:58:14.912Z,7.53
2018-12-13T21:04:03.677Z,7.80
2018-12-13T21:06:36.217Z,7.05
2018-12-13T21:09:15.870Z,7.67
2018-12-13T21:11:50.068Z,6.90
2018-12-13T21:14:24.917Z,7.72
2018-12-13T21:17:00.093Z,7.67
2018-12-13T21:22:30.027Z,6.62
2018-12-13T21:25:02.294Z,7.00
2018-12-13T21:36:51.480Z,6.12
2018-12-13T21:39:25.320Z,5.78
2018-12-13T21:41:58.519Z,5.90
2018-12-13T21:59:43.384Z,5.45
2018-12-13T22:17:26.243Z,5.10
2018-12-13T22:20:06.025Z,3.80
2018-12-13T22:34:39.474Z,4.00
2018-12-13T22:37:24.941Z,4.15
2018-12-13T22:40:07.567Z,3.75
2018-12-13T22:42:46.163Z,3.50
2018-12-13T22:45:20.347Z,3.05
2018-12-13T22:47:48.756Z,3.90
2018-12-13T22:50:23.204Z,3.92
2018-12-13T22:52:55.861Z,3.77
2018-12-13T22:55:37.268Z,4.05
2018-12-13T23:01:20.892Z,3.55
2018-12-13T23:03:55.224Z,3.30
2018-12-13T23:06:24.627Z,5.20
2018-12-13T23:09:06.512Z,3.60
2018-12-13T23:12:01.622Z,4.08
2018-12-13T23:14:51.602Z,3.50
2018-12-13T23:17:34.746Z,4.28
2018-12-13T23:32:16.605Z,4.95
2018-12-13T23:35:01.375Z,5.42
2018-12-13T23:37:30.318Z,4.87
2018-12-13T23:40:09.953Z,4.58
2018-12-13T23:42:38.606Z,5.25
2018-12-13T23:45:19.197Z,5.10
2018-12-13T23:47:57.546Z,4.50
2018-12-13T23:50:34.900Z,5.53
2018-12-13T23:53:11.453Z,4.55
2018-12-13T23:55:41.437Z,4.25
2018-12-13T23:58:22.158Z,5.12
